sensor_id;sensor_type;location;lat;lon;timestamp;P1;durP1;ratioP1;P2;durP2;ratioP2
76745;SDS011;65671;49.976;20.038;2023-09-12T00:00:31;15.55;;;11.48;;
76745;SDS011;65671;49.976;20.038;2023-09-12T00:02:57;13.65;;;10.55;;
76745;SDS011;65671;49.976;20.038;2023-09-12T00:05:22;16.13;;;10.57;;
76745;SDS011;65671;49.976;20.038;2023-09-12T00:07:47;12.93;;;10.80;;
76745;SDS011;65671;49.976;20.038;2023-09-12T00:10:16;14.40;;;10.77;;
76745;SDS011;65671;49.976;20.038;2023-09-12T00:12:41;15.00;;;11.18;;
76745;SDS011;65671;49.976;20.038;2023-09-12T00:15:07;12.77;;;11.23;;
76745;SDS011;65671;49.976;20.038;2023-09-12T00:17:32;13.98;;;11.27;;
76745;SDS011;65671;49.976;20.038;2023-09-12T00:19:57;12.20;;;10.23;;
76745;SDS011;65671;49.976;20.038;2023-09-12T00:22:23;15.57;;;11.88;;
76745;SDS011;65671;49.976;20.038;2023-09-12T00:24:48;14.97;;;11.83;;
76745;SDS011;65671;49.976;20.038;2023-09-12T00:27:13;13.93;;;10.93;;
76745;SDS011;65671;49.976;20.038;2023-09-12T00:29:39;16.65;;;11.45;;
76745;SDS011;65671;49.976;20.038;2023-09-12T00:32:04;14.85;;;11.75;;
76745;SDS011;65671;49.976;20.038;2023-09-12T00:34:30;16.63;;;10.85;;
76745;SDS011;65671;49.976;20.038;2023-09-12T00:36:55;15.90;;;10.97;;
76745;SDS011;65671;49.976;20.038;2023-09-12T00:39:20;13.05;;;10.80;;
76745;SDS011;65671;49.976;20.038;2023-09-12T00:41:46;15.48;;;11.15;;
76745;SDS011;65671;49.976;20.038;2023-09-12T00:44:11;14.03;;;11.10;;
76745;SDS011;65671;49.976;20.038;2023-09-12T00:46:36;16.67;;;12.50;;
76745;SDS011;65671;49.976;20.038;2023-09-12T00:49:03;21.00;;;10.93;;
76745;SDS011;65671;49.976;20.038;2023-09-12T00:51:29;15.85;;;10.98;;
76745;SDS011;65671;49.976;20.038;2023-09-12T00:53:56;14.52;;;10.73;;
76745;SDS011;65671;49.976;20.038;2023-09-12T00:56:21;14.30;;;11.35;;
76745;SDS011;65671;49.976;20.038;2023-09-12T00:58:47;16.90;;;11.77;;
76745;SDS011;65671;49.976;20.038;2023-09-12T01:01:12;14.43;;;10.63;;
76745;SDS011;65671;49.976;20.038;2023-09-12T01:03:37;14.90;;;11.00;;
76745;SDS011;65671;49.976;20.038;2023-09-12T01:06:03;16.63;;;10.88;;
76745;SDS011;65671;49.976;20.038;2023-09-12T01:08:30;14.77;;;10.57;;
76745;SDS011;65671;49.976;20.038;2023-09-12T01:10:56;15.95;;;11.55;;
76745;SDS011;65671;49.976;20.038;2023-09-12T01:13:22;14.93;;;12.13;;
76745;SDS011;65671;49.976;20.038;2023-09-12T01:15:48;17.52;;;11.35;;
76745;SDS011;65671;49.976;20.038;2023-09-12T01:18:13;14.87;;;11.77;;
76745;SDS011;65671;49.976;20.038;2023-09-12T01:20:39;16.67;;;11.80;;
76745;SDS011;65671;49.976;20.038;2023-09-12T01:28:16;14.30;;;10.45;;
76745;SDS011;65671;49.976;20.038;2023-09-12T01:30:42;14.80;;;11.38;;
76745;SDS011;65671;49.976;20.038;2023-09-12T01:33:11;15.48;;;11.98;;
76745;SDS011;65671;49.976;20.038;2023-09-12T01:35:36;13.85;;;11.27;;
76745;SDS011;65671;49.976;20.038;2023-09-12T01:38:01;15.43;;;11.15;;
76745;SDS011;65671;49.976;20.038;2023-09-12T01:40:30;14.95;;;11.18;;
76745;SDS011;65671;49.976;20.038;2023-09-12T01:42:57;16.15;;;11.77;;
76745;SDS011;65671;49.976;20.038;2023-09-12T01:45:22;12.98;;;10.88;;
76745;SDS011;65671;49.976;20.038;2023-09-12T01:47:48;14.75;;;11.57;;
76745;SDS011;65671;49.976;20.038;2023-09-12T01:50:14;14.32;;;11.23;;
76745;SDS011;65671;49.976;20.038;2023-09-12T01:52:41;15.90;;;11.45;;
76745;SDS011;65671;49.976;20.038;2023-09-12T01:55:06;14.55;;;10.43;;
76745;SDS011;65671;49.976;20.038;2023-09-12T01:57:34;15.98;;;11.23;;
76745;SDS011;65671;49.976;20.038;2023-09-12T02:00:00;14.27;;;11.38;;
76745;SDS011;65671;49.976;20.038;2023-09-12T02:02:25;13.20;;;10.85;;
76745;SDS011;65671;49.976;20.038;2023-09-12T02:04:51;16.77;;;10.67;;
76745;SDS011;65671;49.976;20.038;2023-09-12T02:07:19;20.20;;;12.30;;
76745;SDS011;65671;49.976;20.038;2023-09-12T02:09:45;14.93;;;10.75;;
76745;SDS011;65671;49.976;20.038;2023-09-12T02:12:10;14.95;;;11.40;;
76745;SDS011;65671;49.976;20.038;2023-09-12T02:14:36;12.97;;;11.50;;
76745;SDS011;65671;49.976;20.038;2023-09-12T02:17:01;13.35;;;10.50;;
76745;SDS011;65671;49.976;20.038;2023-09-12T02:19:26;13.55;;;10.80;;
76745;SDS011;65671;49.976;20.038;2023-09-12T02:21:52;15.83;;;11.20;;
76745;SDS011;65671;49.976;20.038;2023-09-12T02:24:17;16.93;;;11.33;;
76745;SDS011;65671;49.976;20.038;2023-09-12T02:26:43;17.83;;;11.93;;
76745;SDS011;65671;49.976;20.038;2023-09-12T02:29:09;15.13;;;12.00;;
76745;SDS011;65671;49.976;20.038;2023-09-12T02:31:34;13.95;;;11.50;;
76745;SDS011;65671;49.976;20.038;2023-09-12T02:34:00;13.50;;;10.50;;
76745;SDS011;65671;49.976;20.038;2023-09-12T02:36:25;17.45;;;11.55;;
76745;SDS011;65671;49.976;20.038;2023-09-12T02:38:50;13.50;;;10.70;;
76745;SDS011;65671;49.976;20.038;2023-09-12T02:41:16;14.10;;;11.20;;
76745;SDS011;65671;49.976;20.038;2023-09-12T02:43:41;13.43;;;10.80;;
76745;SDS011;65671;49.976;20.038;2023-09-12T02:46:06;14.07;;;11.23;;
76745;SDS011;65671;49.976;20.038;2023-09-12T02:48:32;14.77;;;10.53;;
76745;SDS011;65671;49.976;20.038;2023-09-12T02:50:57;17.13;;;11.60;;
76745;SDS011;65671;49.976;20.038;2023-09-12T02:53:22;14.38;;;11.27;;
76745;SDS011;65671;49.976;20.038;2023-09-12T02:55:48;14.57;;;10.30;;
76745;SDS011;65671;49.976;20.038;2023-09-12T02:58:13;15.30;;;11.43;;
76745;SDS011;65671;49.976;20.038;2023-09-12T03:00:39;14.35;;;10.95;;
76745;SDS011;65671;49.976;20.038;2023-09-12T03:03:07;14.80;;;10.93;;
76745;SDS011;65671;49.976;20.038;2023-09-12T03:05:34;15.05;;;11.85;;
76745;SDS011;65671;49.976;20.038;2023-09-12T03:08:00;16.48;;;10.77;;
76745;SDS011;65671;49.976;20.038;2023-09-12T03:10:25;16.60;;;11.33;;
76745;SDS011;65671;49.976;20.038;2023-09-12T03:12:50;14.37;;;10.90;;
76745;SDS011;65671;49.976;20.038;2023-09-12T03:15:15;17.83;;;10.87;;
76745;SDS011;65671;49.976;20.038;2023-09-12T03:17:41;13.57;;;10.97;;
76745;SDS011;65671;49.976;20.038;2023-09-12T03:20:06;13.93;;;11.23;;
76745;SDS011;65671;49.976;20.038;2023-09-12T03:22:34;14.05;;;10.90;;
76745;SDS011;65671;49.976;20.038;2023-09-12T03:25:03;13.40;;;11.15;;
76745;SDS011;65671;49.976;20.038;2023-09-12T03:27:28;14.23;;;11.05;;
76745;SDS011;65671;49.976;20.038;2023-09-12T03:29:53;14.53;;;10.80;;
76745;SDS011;65671;49.976;20.038;2023-09-12T03:32:19;12.33;;;10.27;;
76745;SDS011;65671;49.976;20.038;2023-09-12T03:34:44;16.00;;;11.40;;
76745;SDS011;65671;49.976;20.038;2023-09-12T03:37:09;16.27;;;10.73;;
76745;SDS011;65671;49.976;20.038;2023-09-12T03:39:35;14.93;;;10.83;;
76745;SDS011;65671;49.976;20.038;2023-09-12T03:42:00;14.43;;;11.57;;
76745;SDS011;65671;49.976;20.038;2023-09-12T03:44:25;13.37;;;10.60;;
76745;SDS011;65671;49.976;20.038;2023-09-12T03:46:50;15.73;;;12.00;;
76745;SDS011;65671;49.976;20.038;2023-09-12T03:49:16;16.00;;;10.90;;
76745;SDS011;65671;49.976;20.038;2023-09-12T03:51:41;16.63;;;11.57;;
76745;SDS011;65671;49.976;20.038;2023-09-12T03:54:06;14.90;;;10.80;;
76745;SDS011;65671;49.976;20.038;2023-09-12T03:56:32;13.73;;;10.87;;
76745;SDS011;65671;49.976;20.038;2023-09-12T03:58:57;16.33;;;11.10;;
76745;SDS011;65671;49.976;20.038;2023-09-12T04:01:24;14.73;;;11.18;;
76745;SDS011;65671;49.976;20.038;2023-09-12T04:03:50;15.30;;;11.80;;
76745;SDS011;65671;49.976;20.038;2023-09-12T04:06:15;13.20;;;10.13;;
76745;SDS011;65671;49.976;20.038;2023-09-12T04:08:40;14.05;;;10.85;;
76745;SDS011;65671;49.976;20.038;2023-09-12T04:11:06;15.47;;;11.00;;
76745;SDS011;65671;49.976;20.038;2023-09-12T04:13:31;14.37;;;10.60;;
76745;SDS011;65671;49.976;20.038;2023-09-12T04:15:56;15.50;;;11.67;;
76745;SDS011;65671;49.976;20.038;2023-09-12T04:18:21;14.33;;;10.70;;
76745;SDS011;65671;49.976;20.038;2023-09-12T04:20:47;13.57;;;11.07;;
76745;SDS011;65671;49.976;20.038;2023-09-12T04:23:12;12.20;;;10.73;;
76745;SDS011;65671;49.976;20.038;2023-09-12T04:25:37;14.10;;;11.10;;
76745;SDS011;65671;49.976;20.038;2023-09-12T04:28:03;14.57;;;10.60;;
76745;SDS011;65671;49.976;20.038;2023-09-12T04:30:28;12.05;;;9.68;;
76745;SDS011;65671;49.976;20.038;2023-09-12T04:32:53;13.80;;;10.73;;
76745;SDS011;65671;49.976;20.038;2023-09-12T04:35:19;13.60;;;10.87;;
76745;SDS011;65671;49.976;20.038;2023-09-12T04:37:46;13.35;;;10.30;;
76745;SDS011;65671;49.976;20.038;2023-09-12T04:40:11;18.38;;;10.32;;
76745;SDS011;65671;49.976;20.038;2023-09-12T04:42:37;13.30;;;10.47;;
76745;SDS011;65671;49.976;20.038;2023-09-12T04:45:02;15.17;;;9.97;;
76745;SDS011;65671;49.976;20.038;2023-09-12T04:47:27;12.50;;;10.40;;
76745;SDS011;65671;49.976;20.038;2023-09-12T04:49:53;16.53;;;10.63;;
76745;SDS011;65671;49.976;20.038;2023-09-12T04:52:18;15.80;;;12.63;;
76745;SDS011;65671;49.976;20.038;2023-09-12T04:54:43;13.27;;;10.82;;
76745;SDS011;65671;49.976;20.038;2023-09-12T04:57:09;13.13;;;10.97;;
76745;SDS011;65671;49.976;20.038;2023-09-12T04:59:34;14.35;;;9.82;;
76745;SDS011;65671;49.976;20.038;2023-09-12T05:01:59;13.13;;;10.35;;
76745;SDS011;65671;49.976;20.038;2023-09-12T05:04:25;14.00;;;10.73;;
76745;SDS011;65671;49.976;20.038;2023-09-12T05:06:50;14.63;;;11.38;;
76745;SDS011;65671;49.976;20.038;2023-09-12T05:09:16;17.27;;;12.35;;
76745;SDS011;65671;49.976;20.038;2023-09-12T05:11:41;13.57;;;10.75;;
76745;SDS011;65671;49.976;20.038;2023-09-12T05:14:06;13.65;;;10.98;;
76745;SDS011;65671;49.976;20.038;2023-09-12T05:16:32;15.90;;;10.83;;
76745;SDS011;65671;49.976;20.038;2023-09-12T05:18:57;13.57;;;10.80;;
76745;SDS011;65671;49.976;20.038;2023-09-12T05:21:22;14.23;;;10.30;;
76745;SDS011;65671;49.976;20.038;2023-09-12T05:23:47;13.90;;;10.68;;
76745;SDS011;65671;49.976;20.038;2023-09-12T05:26:13;14.23;;;10.10;;
76745;SDS011;65671;49.976;20.038;2023-09-12T05:28:38;15.73;;;10.53;;
76745;SDS011;65671;49.976;20.038;2023-09-12T05:31:03;11.02;;;9.52;;
76745;SDS011;65671;49.976;20.038;2023-09-12T05:33:29;12.55;;;10.45;;
76745;SDS011;65671;49.976;20.038;2023-09-12T05:35:54;13.43;;;10.52;;
76745;SDS011;65671;49.976;20.038;2023-09-12T05:38:20;11.93;;;9.00;;
76745;SDS011;65671;49.976;20.038;2023-09-12T05:40:46;14.60;;;10.98;;
76745;SDS011;65671;49.976;20.038;2023-09-12T05:43:11;14.23;;;10.88;;
76745;SDS011;65671;49.976;20.038;2023-09-12T05:45:36;13.70;;;10.90;;
76745;SDS011;65671;49.976;20.038;2023-09-12T05:48:02;13.82;;;11.27;;
76745;SDS011;65671;49.976;20.038;2023-09-12T05:50:28;19.15;;;10.73;;
76745;SDS011;65671;49.976;20.038;2023-09-12T05:52:53;13.77;;;10.48;;
76745;SDS011;65671;49.976;20.038;2023-09-12T05:55:19;14.07;;;10.57;;
76745;SDS011;65671;49.976;20.038;2023-09-12T05:57:44;14.07;;;10.93;;
76745;SDS011;65671;49.976;20.038;2023-09-12T06:00:10;13.40;;;10.50;;
76745;SDS011;65671;49.976;20.038;2023-09-12T06:02:36;13.48;;;10.75;;
76745;SDS011;65671;49.976;20.038;2023-09-12T06:05:01;12.40;;;10.93;;
76745;SDS011;65671;49.976;20.038;2023-09-12T06:07:27;15.98;;;10.00;;
76745;SDS011;65671;49.976;20.038;2023-09-12T06:09:52;17.85;;;10.68;;
76745;SDS011;65671;49.976;20.038;2023-09-12T06:12:18;16.20;;;10.40;;
76745;SDS011;65671;49.976;20.038;2023-09-12T06:14:43;14.77;;;10.20;;
76745;SDS011;65671;49.976;20.038;2023-09-12T06:17:08;14.93;;;11.20;;
76745;SDS011;65671;49.976;20.038;2023-09-12T06:19:34;13.20;;;10.40;;
76745;SDS011;65671;49.976;20.038;2023-09-12T06:21:59;14.07;;;9.83;;
76745;SDS011;65671;49.976;20.038;2023-09-12T06:24:25;11.90;;;10.60;;
76745;SDS011;65671;49.976;20.038;2023-09-12T06:26:51;13.77;;;10.50;;
76745;SDS011;65671;49.976;20.038;2023-09-12T06:29:16;14.65;;;10.57;;
76745;SDS011;65671;49.976;20.038;2023-09-12T06:31:42;11.75;;;9.95;;
76745;SDS011;65671;49.976;20.038;2023-09-12T06:34:07;13.38;;;10.43;;
76745;SDS011;65671;49.976;20.038;2023-09-12T06:36:33;13.25;;;10.63;;
76745;SDS011;65671;49.976;20.038;2023-09-12T06:38:59;11.30;;;9.85;;
76745;SDS011;65671;49.976;20.038;2023-09-12T06:41:25;13.38;;;10.25;;
76745;SDS011;65671;49.976;20.038;2023-09-12T06:43:50;12.32;;;9.57;;
76745;SDS011;65671;49.976;20.038;2023-09-12T06:46:15;13.60;;;9.60;;
76745;SDS011;65671;49.976;20.038;2023-09-12T06:48:44;13.48;;;10.35;;
76745;SDS011;65671;49.976;20.038;2023-09-12T06:51:10;11.95;;;10.10;;
76745;SDS011;65671;49.976;20.038;2023-09-12T06:53:35;13.50;;;10.27;;
76745;SDS011;65671;49.976;20.038;2023-09-12T06:56:04;10.00;;;8.95;;
76745;SDS011;65671;49.976;20.038;2023-09-12T06:58:29;11.70;;;9.52;;
76745;SDS011;65671;49.976;20.038;2023-09-12T07:00:54;13.17;;;9.67;;
76745;SDS011;65671;49.976;20.038;2023-09-12T07:03:20;11.05;;;9.32;;
76745;SDS011;65671;49.976;20.038;2023-09-12T07:05:46;12.77;;;9.75;;
76745;SDS011;65671;49.976;20.038;2023-09-12T07:08:11;10.63;;;9.52;;
76745;SDS011;65671;49.976;20.038;2023-09-12T07:10:36;12.07;;;9.93;;
76745;SDS011;65671;49.976;20.038;2023-09-12T07:13:02;16.80;;;13.18;;
76745;SDS011;65671;49.976;20.038;2023-09-12T07:15:28;11.95;;;10.05;;
76745;SDS011;65671;49.976;20.038;2023-09-12T07:17:53;12.63;;;10.02;;
76745;SDS011;65671;49.976;20.038;2023-09-12T07:20:18;12.57;;;10.23;;
76745;SDS011;65671;49.976;20.038;2023-09-12T07:22:45;15.32;;;9.70;;
76745;SDS011;65671;49.976;20.038;2023-09-12T07:25:11;12.80;;;9.27;;
76745;SDS011;65671;49.976;20.038;2023-09-12T07:27:37;11.68;;;9.25;;
76745;SDS011;65671;49.976;20.038;2023-09-12T07:30:05;13.20;;;9.98;;
76745;SDS011;65671;49.976;20.038;2023-09-12T07:32:31;13.57;;;9.18;;
76745;SDS011;65671;49.976;20.038;2023-09-12T07:34:56;11.63;;;9.88;;
76745;SDS011;65671;49.976;20.038;2023-09-12T07:37:21;12.43;;;8.93;;
76745;SDS011;65671;49.976;20.038;2023-09-12T07:39:47;11.00;;;9.63;;
76745;SDS011;65671;49.976;20.038;2023-09-12T07:42:12;9.98;;;8.77;;
76745;SDS011;65671;49.976;20.038;2023-09-12T07:44:37;11.07;;;9.45;;
76745;SDS011;65671;49.976;20.038;2023-09-12T07:47:03;14.00;;;9.23;;
76745;SDS011;65671;49.976;20.038;2023-09-12T07:49:28;12.75;;;9.98;;
76745;SDS011;65671;49.976;20.038;2023-09-12T07:51:54;11.82;;;10.27;;
76745;SDS011;65671;49.976;20.038;2023-09-12T07:54:21;11.90;;;9.75;;
76745;SDS011;65671;49.976;20.038;2023-09-12T07:56:47;12.18;;;9.63;;
76745;SDS011;65671;49.976;20.038;2023-09-12T07:59:12;18.67;;;11.38;;
76745;SDS011;65671;49.976;20.038;2023-09-12T08:01:39;11.75;;;9.48;;
76745;SDS011;65671;49.976;20.038;2023-09-12T08:04:04;12.60;;;10.02;;
76745;SDS011;65671;49.976;20.038;2023-09-12T08:06:30;11.95;;;10.23;;
76745;SDS011;65671;49.976;20.038;2023-09-12T08:08:56;18.65;;;11.10;;
76745;SDS011;65671;49.976;20.038;2023-09-12T08:11:21;14.85;;;11.20;;
76745;SDS011;65671;49.976;20.038;2023-09-12T08:13:48;19.63;;;10.80;;
76745;SDS011;65671;49.976;20.038;2023-09-12T08:16:14;13.63;;;10.82;;
76745;SDS011;65671;49.976;20.038;2023-09-12T08:18:39;15.30;;;9.65;;
76745;SDS011;65671;49.976;20.038;2023-09-12T08:21:04;13.82;;;10.30;;
76745;SDS011;65671;49.976;20.038;2023-09-12T08:23:30;12.43;;;10.25;;
76745;SDS011;65671;49.976;20.038;2023-09-12T08:25:55;11.93;;;10.50;;
76745;SDS011;65671;49.976;20.038;2023-09-12T08:28:20;12.73;;;10.60;;
76745;SDS011;65671;49.976;20.038;2023-09-12T08:30:46;11.63;;;9.77;;
76745;SDS011;65671;49.976;20.038;2023-09-12T08:33:11;10.95;;;9.82;;
76745;SDS011;65671;49.976;20.038;2023-09-12T08:35:37;11.27;;;10.07;;
76745;SDS011;65671;49.976;20.038;2023-09-12T08:38:02;13.50;;;9.10;;
76745;SDS011;65671;49.976;20.038;2023-09-12T08:40:27;13.50;;;10.60;;
76745;SDS011;65671;49.976;20.038;2023-09-12T08:42:55;11.98;;;10.05;;
76745;SDS011;65671;49.976;20.038;2023-09-12T08:45:22;15.20;;;10.15;;
76745;SDS011;65671;49.976;20.038;2023-09-12T08:47:52;12.38;;;10.32;;
76745;SDS011;65671;49.976;20.038;2023-09-12T08:50:18;15.73;;;9.18;;
76745;SDS011;65671;49.976;20.038;2023-09-12T08:52:45;11.38;;;10.13;;
76745;SDS011;65671;49.976;20.038;2023-09-12T08:55:11;12.30;;;9.55;;
76745;SDS011;65671;49.976;20.038;2023-09-12T08:57:37;11.90;;;10.50;;
76745;SDS011;65671;49.976;20.038;2023-09-12T09:00:03;14.02;;;10.32;;
76745;SDS011;65671;49.976;20.038;2023-09-12T09:02:34;12.70;;;10.73;;
76745;SDS011;65671;49.976;20.038;2023-09-12T09:05:00;12.68;;;9.73;;
76745;SDS011;65671;49.976;20.038;2023-09-12T09:07:27;14.05;;;9.85;;
76745;SDS011;65671;49.976;20.038;2023-09-12T09:09:53;15.93;;;9.93;;
76745;SDS011;65671;49.976;20.038;2023-09-12T09:12:21;11.95;;;10.15;;
76745;SDS011;65671;49.976;20.038;2023-09-12T09:14:46;12.38;;;10.25;;
76745;SDS011;65671;49.976;20.038;2023-09-12T09:17:11;13.40;;;10.77;;
76745;SDS011;65671;49.976;20.038;2023-09-12T09:19:42;12.30;;;9.45;;
76745;SDS011;65671;49.976;20.038;2023-09-12T09:22:08;10.95;;;9.20;;
76745;SDS011;65671;49.976;20.038;2023-09-12T09:24:33;14.35;;;10.52;;
76745;SDS011;65671;49.976;20.038;2023-09-12T09:26:59;11.32;;;9.65;;
76745;SDS011;65671;49.976;20.038;2023-09-12T09:29:26;11.18;;;9.90;;
76745;SDS011;65671;49.976;20.038;2023-09-12T09:31:53;13.57;;;8.90;;
76745;SDS011;65671;49.976;20.038;2023-09-12T09:34:19;16.58;;;9.38;;
76745;SDS011;65671;49.976;20.038;2023-09-12T09:36:53;11.27;;;9.20;;
76745;SDS011;65671;49.976;20.038;2023-09-12T09:39:19;10.85;;;9.20;;
76745;SDS011;65671;49.976;20.038;2023-09-12T09:41:54;10.60;;;9.50;;
76745;SDS011;65671;49.976;20.038;2023-09-12T09:44:24;14.52;;;9.18;;
76745;SDS011;65671;49.976;20.038;2023-09-12T09:49:19;15.02;;;10.52;;
76745;SDS011;65671;49.976;20.038;2023-09-12T09:51:44;11.43;;;9.23;;
76745;SDS011;65671;49.976;20.038;2023-09-12T09:54:13;10.80;;;9.32;;
76745;SDS011;65671;49.976;20.038;2023-09-12T09:56:45;10.15;;;8.90;;
76745;SDS011;65671;49.976;20.038;2023-09-12T09:59:13;10.18;;;8.68;;
76745;SDS011;65671;49.976;20.038;2023-09-12T10:01:39;13.25;;;9.25;;
76745;SDS011;65671;49.976;20.038;2023-09-12T10:04:05;13.93;;;9.68;;
76745;SDS011;65671;49.976;20.038;2023-09-12T10:06:31;10.77;;;8.70;;
76745;SDS011;65671;49.976;20.038;2023-09-12T10:09:00;11.43;;;8.55;;
76745;SDS011;65671;49.976;20.038;2023-09-12T10:11:28;13.45;;;8.68;;
76745;SDS011;65671;49.976;20.038;2023-09-12T10:13:57;10.80;;;8.93;;
76745;SDS011;65671;49.976;20.038;2023-09-12T10:16:23;10.93;;;8.63;;
76745;SDS011;65671;49.976;20.038;2023-09-12T10:18:55;10.75;;;8.40;;
76745;SDS011;65671;49.976;20.038;2023-09-12T10:21:24;9.88;;;8.13;;
76745;SDS011;65671;49.976;20.038;2023-09-12T10:23:52;12.13;;;8.05;;
76745;SDS011;65671;49.976;20.038;2023-09-12T10:26:18;9.50;;;7.45;;
76745;SDS011;65671;49.976;20.038;2023-09-12T10:28:44;9.32;;;7.40;;
76745;SDS011;65671;49.976;20.038;2023-09-12T10:31:11;9.82;;;7.07;;
76745;SDS011;65671;49.976;20.038;2023-09-12T10:33:37;9.07;;;7.13;;
76745;SDS011;65671;49.976;20.038;2023-09-12T10:36:03;10.43;;;7.80;;
76745;SDS011;65671;49.976;20.038;2023-09-12T10:38:29;9.65;;;7.35;;
76745;SDS011;65671;49.976;20.038;2023-09-12T10:40:55;9.63;;;7.30;;
76745;SDS011;65671;49.976;20.038;2023-09-12T10:43:21;8.52;;;6.70;;
76745;SDS011;65671;49.976;20.038;2023-09-12T10:45:47;10.43;;;7.70;;
76745;SDS011;65671;49.976;20.038;2023-09-12T10:48:13;9.02;;;7.47;;
76745;SDS011;65671;49.976;20.038;2023-09-12T10:50:39;9.35;;;7.38;;
76745;SDS011;65671;49.976;20.038;2023-09-12T10:53:11;9.07;;;7.45;;
76745;SDS011;65671;49.976;20.038;2023-09-12T10:55:36;8.88;;;7.13;;
76745;SDS011;65671;49.976;20.038;2023-09-12T10:58:07;11.40;;;7.32;;
76745;SDS011;65671;49.976;20.038;2023-09-12T11:00:33;10.00;;;7.40;;
76745;SDS011;65671;49.976;20.038;2023-09-12T11:02:59;8.68;;;7.80;;
76745;SDS011;65671;49.976;20.038;2023-09-12T11:07:57;7.97;;;7.18;;
76745;SDS011;65671;49.976;20.038;2023-09-12T11:10:23;8.50;;;7.60;;
76745;SDS011;65671;49.976;20.038;2023-09-12T11:12:53;10.27;;;8.07;;
76745;SDS011;65671;49.976;20.038;2023-09-12T11:15:19;9.52;;;7.65;;
76745;SDS011;65671;49.976;20.038;2023-09-12T11:17:45;9.90;;;8.50;;
76745;SDS011;65671;49.976;20.038;2023-09-12T11:20:11;11.75;;;8.40;;
76745;SDS011;65671;49.976;20.038;2023-09-12T11:22:41;9.13;;;8.13;;
76745;SDS011;65671;49.976;20.038;2023-09-12T11:27:44;9.95;;;8.00;;
76745;SDS011;65671;49.976;20.038;2023-09-12T11:30:10;9.77;;;8.02;;
76745;SDS011;65671;49.976;20.038;2023-09-12T11:32:36;10.20;;;7.28;;
76745;SDS011;65671;49.976;20.038;2023-09-12T11:35:07;11.23;;;7.95;;
76745;SDS011;65671;49.976;20.038;2023-09-12T11:37:33;13.00;;;8.40;;
76745;SDS011;65671;49.976;20.038;2023-09-12T11:40:00;9.55;;;8.43;;
76745;SDS011;65671;49.976;20.038;2023-09-12T11:42:26;9.18;;;7.57;;
76745;SDS011;65671;49.976;20.038;2023-09-12T11:44:52;13.82;;;7.28;;
76745;SDS011;65671;49.976;20.038;2023-09-12T11:47:17;11.02;;;7.82;;
76745;SDS011;65671;49.976;20.038;2023-09-12T11:49:43;8.75;;;7.85;;
76745;SDS011;65671;49.976;20.038;2023-09-12T11:52:09;10.20;;;8.23;;
76745;SDS011;65671;49.976;20.038;2023-09-12T11:54:35;11.73;;;9.55;;
76745;SDS011;65671;49.976;20.038;2023-09-12T11:57:01;9.90;;;7.82;;
76745;SDS011;65671;49.976;20.038;2023-09-12T11:59:27;10.23;;;7.65;;
76745;SDS011;65671;49.976;20.038;2023-09-12T12:01:53;8.90;;;7.63;;
76745;SDS011;65671;49.976;20.038;2023-09-12T12:04:22;9.57;;;7.93;;
76745;SDS011;65671;49.976;20.038;2023-09-12T12:06:47;13.68;;;10.98;;
76745;SDS011;65671;49.976;20.038;2023-09-12T12:09:13;10.65;;;7.60;;
76745;SDS011;65671;49.976;20.038;2023-09-12T12:11:39;8.63;;;7.72;;
76745;SDS011;65671;49.976;20.038;2023-09-12T12:14:13;8.75;;;7.75;;
76745;SDS011;65671;49.976;20.038;2023-09-12T12:16:40;11.00;;;7.78;;
76745;SDS011;65671;49.976;20.038;2023-09-12T12:19:05;8.63;;;7.82;;
76745;SDS011;65671;49.976;20.038;2023-09-12T12:21:31;8.32;;;7.38;;
76745;SDS011;65671;49.976;20.038;2023-09-12T12:23:57;8.48;;;7.60;;
76745;SDS011;65671;49.976;20.038;2023-09-12T12:26:24;8.98;;;7.35;;
76745;SDS011;65671;49.976;20.038;2023-09-12T12:28:49;8.63;;;7.72;;
76745;SDS011;65671;49.976;20.038;2023-09-12T12:31:14;11.57;;;7.90;;
76745;SDS011;65671;49.976;20.038;2023-09-12T12:33:40;8.48;;;7.47;;
76745;SDS011;65671;49.976;20.038;2023-09-12T12:36:05;9.02;;;8.13;;
76745;SDS011;65671;49.976;20.038;2023-09-12T12:38:37;11.10;;;8.00;;
76745;SDS011;65671;49.976;20.038;2023-09-12T12:41:02;8.52;;;7.72;;
76745;SDS011;65671;49.976;20.038;2023-09-12T12:43:28;9.70;;;7.65;;
76745;SDS011;65671;49.976;20.038;2023-09-12T12:45:57;9.90;;;7.72;;
76745;SDS011;65671;49.976;20.038;2023-09-12T12:48:29;8.05;;;6.78;;
76745;SDS011;65671;49.976;20.038;2023-09-12T12:50:55;10.70;;;7.65;;
76745;SDS011;65671;49.976;20.038;2023-09-12T12:53:36;10.80;;;7.43;;
76745;SDS011;65671;49.976;20.038;2023-09-12T12:56:01;13.32;;;7.38;;
76745;SDS011;65671;49.976;20.038;2023-09-12T12:58:27;9.55;;;7.35;;
76745;SDS011;65671;49.976;20.038;2023-09-12T13:00:52;11.38;;;7.35;;
76745;SDS011;65671;49.976;20.038;2023-09-12T13:03:18;9.15;;;7.22;;
76745;SDS011;65671;49.976;20.038;2023-09-12T13:05:43;8.90;;;8.00;;
76745;SDS011;65671;49.976;20.038;2023-09-12T13:08:08;9.27;;;7.17;;
76745;SDS011;65671;49.976;20.038;2023-09-12T13:10:34;11.63;;;7.37;;
76745;SDS011;65671;49.976;20.038;2023-09-12T13:12:59;11.43;;;7.93;;
76745;SDS011;65671;49.976;20.038;2023-09-12T13:15:25;8.37;;;7.57;;
76745;SDS011;65671;49.976;20.038;2023-09-12T13:17:50;9.10;;;8.00;;
76745;SDS011;65671;49.976;20.038;2023-09-12T13:20:15;8.15;;;7.30;;
76745;SDS011;65671;49.976;20.038;2023-09-12T13:22:41;9.05;;;7.70;;
76745;SDS011;65671;49.976;20.038;2023-09-12T13:25:08;10.65;;;7.55;;
76745;SDS011;65671;49.976;20.038;2023-09-12T13:27:33;7.53;;;6.72;;
76745;SDS011;65671;49.976;20.038;2023-09-12T13:29:59;8.32;;;7.28;;
76745;SDS011;65671;49.976;20.038;2023-09-12T13:32:24;8.77;;;7.00;;
76745;SDS011;65671;49.976;20.038;2023-09-12T13:34:50;11.23;;;7.90;;
76745;SDS011;65671;49.976;20.038;2023-09-12T13:37:15;8.07;;;6.95;;
76745;SDS011;65671;49.976;20.038;2023-09-12T13:39:42;8.27;;;7.05;;
76745;SDS011;65671;49.976;20.038;2023-09-12T13:42:12;10.23;;;7.72;;
76745;SDS011;65671;49.976;20.038;2023-09-12T13:44:39;13.07;;;7.97;;
76745;SDS011;65671;49.976;20.038;2023-09-12T13:47:04;8.40;;;7.22;;
76745;SDS011;65671;49.976;20.038;2023-09-12T13:49:30;8.85;;;7.85;;
76745;SDS011;65671;49.976;20.038;2023-09-12T13:51:55;11.27;;;8.10;;
76745;SDS011;65671;49.976;20.038;2023-09-12T13:54:20;11.82;;;7.68;;
76745;SDS011;65671;49.976;20.038;2023-09-12T13:56:46;9.07;;;7.72;;
76745;SDS011;65671;49.976;20.038;2023-09-12T13:59:11;8.85;;;7.95;;
76745;SDS011;65671;49.976;20.038;2023-09-12T14:01:37;9.33;;;7.47;;
76745;SDS011;65671;49.976;20.038;2023-09-12T14:04:03;9.98;;;8.15;;
76745;SDS011;65671;49.976;20.038;2023-09-12T14:06:28;8.35;;;7.43;;
76745;SDS011;65671;49.976;20.038;2023-09-12T14:08:53;9.70;;;7.70;;
76745;SDS011;65671;49.976;20.038;2023-09-12T14:11:19;8.00;;;7.03;;
76745;SDS011;65671;49.976;20.038;2023-09-12T14:13:44;11.75;;;7.70;;
76745;SDS011;65671;49.976;20.038;2023-09-12T14:16:09;8.53;;;7.57;;
76745;SDS011;65671;49.976;20.038;2023-09-12T14:18:35;11.15;;;8.38;;
76745;SDS011;65671;49.976;20.038;2023-09-12T14:21:00;8.95;;;7.55;;